Time;durP1;ratioP1;P1;durP2;ratioP2;P2;SDS_P1;SDS_P2;PMS_P1;PMS_P2;Temp;Humidity;BMP_temperature;BMP_pressure;BME280_temperature;BME280_humidity;BME280_pressure;Samples;Min_cycle;Max_cycle;Signal;HPM_P1;HPM_P2
2021/01/20 00:01:25;;;;;;;245.90;72.93;;;;;;;-18.90;78.53;99897.13;3551932;27;20541;-45
2021/01/20 00:03:06;;;;;;;255.53;75.23;;;;;;;-18.91;78.41;99891.25;3552280;27;20055;-43
2021/01/20 00:04:48;;;;;;;249.30;73.80;;;;;;;-18.94;78.42;99895.78;3554420;27;20054;-43
2021/01/20 00:06:30;;;;;;;266.80;70.77;;;;;;;-18.92;78.69;99891.06;3552283;27;20053;-43
2021/01/20 00:08:12;;;;;;;244.80;67.73;;;;;;;-18.93;78.93;99887.69;3552813;27;20047;-43
2021/01/20 00:09:53;;;;;;;232.63;69.23;;;;;;;-18.91;79.22;99891.25;3550561;27;20095;-43
2021/01/20 00:11:35;;;;;;;233.03;67.03;;;;;;;-18.89;79.07;99886.53;3551896;27;20494;-43
2021/01/20 00:13:17;;;;;;;236.77;66.40;;;;;;;-18.84;79.00;99887.13;3554756;27;20050;-43
2021/01/20 00:14:58;;;;;;;236.97;66.77;;;;;;;-18.85;78.92;99885.34;3552548;27;20054;-43
2021/01/20 00:16:40;;;;;;;255.57;66.73;;;;;;;-18.87;78.47;99887.59;3552113;27;20047;-43
2021/01/20 00:18:22;;;;;;;230.17;67.70;;;;;;;-18.90;78.15;99895.53;3554293;27;20591;-43
2021/01/20 00:20:05;;;;;;;224.20;69.30;;;;;;;-18.95;77.76;99888.22;3552256;27;20068;-43
2021/01/20 00:21:47;;;;;;;226.73;67.30;;;;;;;-18.98;77.89;99891.16;3552815;27;20051;-43
2021/01/20 00:23:28;;;;;;;244.00;65.57;;;;;;;-18.98;78.01;99892.75;3553709;27;20082;-43
2021/01/20 00:25:11;;;;;;;242.97;68.57;;;;;;;-19.01;78.10;99892.34;3552352;27;20111;-48
2021/01/20 00:26:53;;;;;;;231.13;67.13;;;;;;;-19.02;77.94;99895.50;3553862;27;20605;-49
2021/01/20 00:28:34;;;;;;;242.53;64.93;;;;;;;-19.04;77.93;99897.78;3552501;27;20438;-50
2021/01/20 00:30:17;;;;;;;246.27;62.87;;;;;;;-19.06;77.82;99895.09;3551871;27;20088;-49
2021/01/20 00:31:58;;;;;;;219.13;64.37;;;;;;;-19.09;77.63;99892.22;3554424;27;20058;-49
2021/01/20 00:33:40;;;;;;;238.43;63.77;;;;;;;-19.09;77.84;99883.94;3551964;27;20047;-49
2021/01/20 00:35:22;;;;;;;205.97;59.27;;;;;;;-19.09;77.73;99884.81;3552170;27;20051;-49
2021/01/20 00:37:04;;;;;;;204.77;56.73;;;;;;;-19.07;77.89;99888.38;3552890;27;20082;-50
2021/01/20 00:38:45;;;;;;;201.00;60.47;;;;;;;-19.04;77.91;99886.97;3551780;27;20043;-48
2021/01/20 00:40:27;;;;;;;209.47;57.90;;;;;;;-19.03;77.76;99883.84;3553615;27;20046;-52
2021/01/20 00:42:09;;;;;;;203.30;59.50;;;;;;;-19.04;77.43;99891.91;3551510;27;20050;-48
2021/01/20 00:43:51;;;;;;;216.43;60.17;;;;;;;-19.06;77.26;99887.69;3551911;27;20054;-43
2021/01/20 00:45:32;;;;;;;194.07;56.50;;;;;;;-19.08;77.21;99884.13;3553986;27;20445;-43
2021/01/20 00:47:14;;;;;;;193.00;59.77;;;;;;;-19.09;76.93;99883.94;3551785;27;20050;-43
2021/01/20 00:48:55;;;;;;;208.73;61.30;;;;;;;-19.10;76.92;99884.59;3551978;27;20057;-43
2021/01/20 00:50:38;;;;;;;214.87;57.20;;;;;;;-19.14;76.47;99887.38;3553787;27;20077;-43
2021/01/20 00:52:19;;;;;;;190.83;57.47;;;;;;;-19.17;76.55;99885.38;3551541;27;20050;-43
2021/01/20 00:54:01;;;;;;;192.20;57.00;;;;;;;-19.20;76.67;99889.94;3553462;27;20054;-43
2021/01/20 00:55:42;;;;;;;181.57;53.33;;;;;;;-19.23;76.85;99884.59;3552654;27;20434;-43
2021/01/20 00:57:26;;;;;;;198.80;56.97;;;;;;;-19.25;76.74;99872.03;3551400;27;20043;-43
2021/01/20 00:59:08;;;;;;;208.27;56.13;;;;;;;-19.27;76.86;99879.94;3554021;27;20066;-43
2021/01/20 01:00:49;;;;;;;176.77;49.43;;;;;;;-19.30;77.05;99882.00;3552105;27;20054;-43
2021/01/20 01:02:30;;;;;;;215.47;57.27;;;;;;;-19.30;77.16;99884.47;3551407;27;20528;-43
2021/01/20 01:04:12;;;;;;;184.33;57.47;;;;;;;-19.32;77.35;99881.78;3553782;27;20495;-43
2021/01/20 01:05:54;;;;;;;189.20;58.43;;;;;;;-19.32;77.33;99886.72;3551531;27;20464;-43
2021/01/20 01:07:35;;;;;;;196.73;54.40;;;;;;;-19.33;77.46;99889.88;3551714;27;20050;-43
2021/01/20 01:09:17;;;;;;;193.53;55.07;;;;;;;-19.31;77.71;99887.63;3544375;27;20482;-43
2021/01/20 01:10:59;;;;;;;185.93;53.93;;;;;;;-19.31;77.67;99880.19;3547752;27;20042;-50
2021/01/20 01:12:41;;;;;;;167.53;51.83;;;;;;;-19.29;77.67;99877.25;3552583;27;20506;-50
2021/01/20 01:14:23;;;;;;;183.00;52.17;;;;;;;-19.26;77.43;99879.22;3552987;27;20043;-48
2021/01/20 01:16:05;;;;;;;188.83;50.33;;;;;;;-19.26;77.19;99874.28;3551671;27;20043;-50
2021/01/20 01:17:46;;;;;;;178.57;50.27;;;;;;;-19.25;77.15;99876.09;3553698;27;20050;-49
2021/01/20 01:19:28;;;;;;;174.10;51.10;;;;;;;-19.26;76.99;99869.34;3551441;27;20050;-51
2021/01/20 01:21:10;;;;;;;183.30;51.40;;;;;;;-19.27;76.88;99866.00;3550529;27;20426;-51
2021/01/20 01:22:51;;;;;;;174.37;50.73;;;;;;;-19.28;76.65;99868.25;3551945;27;20460;-50
2021/01/20 01:24:33;;;;;;;174.23;51.73;;;;;;;-19.30;76.54;99870.53;3550993;27;20043;-49
2021/01/20 01:26:14;;;;;;;198.10;52.00;;;;;;;-19.30;76.38;99872.13;3551913;27;20051;-51
2021/01/20 01:27:57;;;;;;;192.07;53.13;;;;;;;-19.32;76.58;99875.97;3552328;27;20103;-49
2021/01/20 01:29:38;;;;;;;166.97;47.87;;;;;;;-19.34;76.69;99873.28;3551139;27;20498;-47
2021/01/20 01:31:20;;;;;;;177.57;51.03;;;;;;;-19.33;76.85;99871.69;3552095;27;20050;-50
2021/01/20 01:33:02;;;;;;;174.03;50.63;;;;;;;-19.33;76.55;99876.63;3549238;27;20054;-49
2021/01/20 01:34:44;;;;;;;150.50;47.20;;;;;;;-19.37;76.54;99875.34;3550513;27;20042;-49
2021/01/20 01:36:26;;;;;;;181.57;52.33;;;;;;;-19.38;76.31;99885.03;3553277;27;20155;-48
2021/01/20 01:38:08;;;;;;;171.07;49.10;;;;;;;-19.41;76.57;99883.06;3550276;27;20510;-50
2021/01/20 01:39:49;;;;;;;155.10;46.63;;;;;;;-19.45;76.44;99884.22;3551125;27;20043;-48
2021/01/20 01:41:31;;;;;;;164.63;48.37;;;;;;;-19.47;76.66;99887.16;3552630;27;20419;-51
2021/01/20 01:43:15;;;;;;;179.30;48.43;;;;;;;-19.47;76.95;99889.63;3550934;27;20084;-53
2021/01/20 01:44:56;;;;;;;173.47;49.13;;;;;;;-19.45;77.07;99884.22;3552798;27;20504;-50
2021/01/20 01:46:38;;;;;;;175.87;49.40;;;;;;;-19.41;77.49;99877.19;3551409;27;20054;-55
2021/01/20 01:48:20;;;;;;;157.30;46.90;;;;;;;-19.38;77.49;99880.09;3551110;27;20115;-43
2021/01/20 01:50:02;;;;;;;166.93;46.63;;;;;;;-19.36;77.49;99882.09;3553785;27;20046;-43
2021/01/20 01:51:43;;;;;;;156.27;44.67;;;;;;;-19.38;77.02;99888.38;3550834;27;20078;-43
2021/01/20 01:53:24;;;;;;;161.20;46.97;;;;;;;-19.40;76.94;99882.34;3550726;27;20404;-43
2021/01/20 01:55:07;;;;;;;159.03;47.40;;;;;;;-19.42;76.88;99891.13;3553559;27;20108;-48
2021/01/20 01:56:49;;;;;;;166.20;46.22;;;;;;;-19.42;76.91;99885.31;3550821;27;20460;-50
2021/01/20 01:58:32;;;;;;;174.63;48.37;;;;;;;-19.44;77.19;99882.63;3552927;27;20061;-52
2021/01/20 02:00:15;;;;;;;174.83;46.07;;;;;;;-19.41;77.38;99875.66;3551876;27;20065;-49
2021/01/20 02:01:56;;;;;;;166.73;46.85;;;;;;;-19.38;77.59;99875.13;3550735;27;20556;-48
2021/01/20 02:03:38;;;;;;;151.07;45.37;;;;;;;-19.36;77.37;99884.56;3553337;27;20141;-48
2021/01/20 02:05:20;;;;;;;147.67;42.23;;;;;;;-19.37;77.12;99869.53;3551048;27;20051;-50
2021/01/20 02:07:02;;;;;;;146.13;46.13;;;;;;;-19.37;76.85;99872.88;3550761;27;20571;-49
2021/01/20 02:08:45;;;;;;;140.50;43.43;;;;;;;-19.38;76.81;99877.63;3548563;27;20050;-48
2021/01/20 02:10:26;;;;;;;161.37;44.13;;;;;;;-19.38;76.86;99873.56;3547929;27;20042;-43
2021/01/20 02:13:03;;;;;;;138.03;40.07;;;;;;;-19.36;76.82;99867.25;3551672;27;20059;-43
2021/01/20 02:14:54;;;;;;;132.80;39.77;;;;;;;-19.34;77.17;99868.34;3495674;28;20106;-43
2021/01/20 02:16:40;;;;;;;130.70;37.60;;;;;;;-19.33;77.18;99872.59;3521464;27;20058;-43
2021/01/20 02:18:26;;;;;;;149.67;40.03;;;;;;;-19.33;76.58;99870.09;3550242;27;20100;-43
2021/01/20 02:20:53;;;;;;;139.10;38.17;;;;;;;-19.34;77.25;99875.75;3552300;27;20062;-43
2021/01/20 02:22:39;;;;;;;132.17;37.07;;;;;;;-19.29;77.84;99878.81;3537322;28;20074;-43
2021/01/20 02:24:30;;;;;;;132.67;37.77;;;;;;;-19.25;78.22;99879.44;3548862;27;20042;-43
2021/01/20 02:26:16;;;;;;;137.40;39.60;;;;;;;-19.21;78.15;99882.31;3550713;27;20054;-43
2021/01/20 02:28:06;;;;;;;99.60;31.43;;;;;;;-19.19;78.39;99881.81;3553142;27;20078;-43
2021/01/20 02:30:01;;;;;;;110.13;29.40;;;;;;;-19.12;78.76;99886.00;3551398;27;20177;-43
2021/01/20 02:31:44;;;;;;;90.60;29.43;;;;;;;-19.08;79.09;99886.59;3550678;27;20053;-46
2021/01/20 02:33:30;;;;;;;72.93;23.10;;;;;;;-19.03;79.00;99891.25;3552973;27;20058;-49
2021/01/20 02:35:13;;;;;;;114.77;32.57;;;;;;;-19.01;79.15;99890.75;3550532;27;20049;-48
2021/01/20 02:36:56;;;;;;;131.75;40.40;;;;;;;-18.99;78.99;99889.38;3550921;27;20628;-43
2021/01/20 02:38:40;;;;;;;125.37;35.10;;;;;;;-18.98;79.18;99890.28;3552754;27;20046;-43
2021/01/20 02:40:22;;;;;;;137.27;37.20;;;;;;;-18.96;79.34;99888.88;3550525;27;20046;-43
2021/01/20 02:42:05;;;;;;;120.80;36.43;;;;;;;-18.96;79.35;99887.28;3550808;27;20051;-43
2021/01/20 02:43:46;;;;;;;121.17;35.37;;;;;;;-18.96;79.30;99897.19;3552669;27;20055;-43
2021/01/20 02:45:28;;;;;;;109.83;30.93;;;;;;;-18.97;79.35;99896.97;3550242;27;20466;-43
2021/01/20 02:47:11;;;;;;;111.50;34.93;;;;;;;-18.95;79.62;99889.09;3551816;27;20092;-43
2021/01/20 02:48:53;;;;;;;110.27;34.80;;;;;;;-18.93;79.70;99880.28;3551720;27;20145;-43
2021/01/20 02:50:35;;;;;;;129.67;34.73;;;;;;;-18.89;79.67;99889.88;3549983;27;20418;-43
2021/01/20 02:52:27;;;;;;;123.23;36.10;;;;;;;-18.88;79.45;99884.25;3552316;27;20077;-43
2021/01/20 02:54:12;;;;;;;125.73;38.20;;;;;;;-18.88;79.26;99884.25;3550721;27;20061;-43
2021/01/20 02:55:56;;;;;;;119.00;34.37;;;;;;;-18.87;79.39;99886.03;3550537;27;20186;-49
2021/01/20 02:57:41;;;;;;;119.47;34.87;;;;;;;-18.84;79.49;99890.47;3552597;27;20416;-50
2021/01/20 02:59:25;;;;;;;96.27;34.57;;;;;;;-18.80;79.58;99886.81;3550606;27;20077;-50
2021/01/20 03:01:11;;;;;;;116.53;35.13;;;;;;;-18.77;79.49;99893.06;3549993;27;20191;-43
2021/01/20 03:02:56;;;;;;;114.87;34.40;;;;;;;-18.76;79.37;99902.28;3552563;27;20051;-43
2021/01/20 03:04:39;;;;;;;110.87;34.37;;;;;;;-18.74;79.13;99905.84;3550172;27;20134;-43
2021/01/20 03:06:23;;;;;;;88.67;29.13;;;;;;;-18.79;78.66;99909.28;3550478;27;20047;-42
2021/01/20 03:08:05;;;;;;;134.45;39.80;;;;;;;-18.84;78.59;99911.84;3552440;27;20092;-43
2021/01/20 03:09:47;;;;;;;148.00;40.03;;;;;;;-18.86;78.82;99911.66;3546988;27;20051;-43
2021/01/20 03:11:29;;;;;;;140.83;43.20;;;;;;;-18.87;78.91;99918.19;3551369;27;20069;-43
2021/01/20 03:13:11;;;;;;;159.63;46.63;;;;;;;-18.88;79.22;99920.47;3551541;27;20046;-43
2021/01/20 03:14:54;;;;;;;168.63;48.17;;;;;;;-18.89;79.05;99916.19;3550017;27;20103;-43
2021/01/20 03:16:37;;;;;;;161.82;45.05;;;;;;;-18.88;79.61;99913.91;3552960;27;20047;-52
2021/01/20 03:18:18;;;;;;;147.93;44.73;;;;;;;-18.85;79.86;99917.47;3550457;27;20126;-43
2021/01/20 03:20:00;;;;;;;151.23;44.23;;;;;;;-18.82;80.23;99915.41;3550015;27;20503;-43
2021/01/20 03:21:41;;;;;;;140.57;42.27;;;;;;;-18.78;80.41;99908.59;3552725;27;20095;-49
2021/01/20 03:23:23;;;;;;;148.83;44.80;;;;;;;-18.77;80.37;99920.25;3549959;27;20046;-48
2021/01/20 03:25:06;;;;;;;129.37;40.77;;;;;;;-18.77;80.23;99921.84;3550338;27;20099;-50
2021/01/20 03:26:47;;;;;;;102.67;36.37;;;;;;;-18.78;80.02;99920.97;3552191;27;20053;-50
2021/01/20 03:28:29;;;;;;;129.47;42.67;;;;;;;-18.80;80.06;99916.50;3549821;27;20396;-49
2021/01/20 03:30:11;;;;;;;143.20;40.53;;;;;;;-18.79;80.46;99921.66;3551360;27;20106;-48
2021/01/20 03:31:54;;;;;;;136.27;41.83;;;;;;;-18.77;80.57;99925.22;3550149;27;20537;-50
2021/01/20 03:33:35;;;;;;;125.40;39.83;;;;;;;-18.76;80.61;99914.63;3549882;27;20083;-50
2021/01/20 03:35:17;;;;;;;137.07;41.30;;;;;;;-18.73;80.71;99912.50;3551742;27;20524;-48
2021/01/20 03:36:59;;;;;;;130.07;40.53;;;;;;;-18.70;80.80;99909.56;3549409;27;20043;-49
2021/01/20 03:38:40;;;;;;;127.00;39.67;;;;;;;-18.68;80.62;99911.53;3549421;27;20422;-48
2021/01/20 03:40:22;;;;;;;148.10;39.93;;;;;;;-18.64;80.70;99904.50;3550704;27;20127;-49
2021/01/20 03:42:04;;;;;;;117.17;37.40;;;;;;;-18.61;80.50;99910.75;3549821;27;20078;-49
2021/01/20 03:43:45;;;;;;;112.27;38.87;;;;;;;-18.59;80.45;99908.47;3551196;27;20053;-50
2021/01/20 03:45:27;;;;;;;118.43;36.77;;;;;;;-18.57;80.32;99909.56;3549795;27;20050;-51
2021/01/20 03:47:10;;;;;;;122.20;39.40;;;;;;;-18.59;80.19;99904.41;3548366;27;20050;-50
2021/01/20 03:48:51;;;;;;;128.10;35.03;;;;;;;-18.58;80.01;99905.31;3552145;27;20268;-43
2021/01/20 03:50:33;;;;;;;121.03;37.17;;;;;;;-18.59;79.68;99899.47;3549463;27;20047;-43
2021/01/20 03:52:15;;;;;;;120.77;38.03;;;;;;;-18.60;79.68;99886.88;3548646;27;20081;-43
2021/01/20 03:53:56;;;;;;;117.47;35.77;;;;;;;-18.61;79.47;99886.00;3551346;27;20046;-49
2021/01/20 03:55:39;;;;;;;119.57;35.83;;;;;;;-18.63;79.20;99889.88;3549280;27;20255;-49
2021/01/20 03:57:21;;;;;;;106.10;33.37;;;;;;;-18.64;79.03;99897.97;3550198;27;20091;-43
2021/01/20 03:59:02;;;;;;;121.60;33.97;;;;;;;-18.65;78.90;99892.81;3550479;27;20324;-43
2021/01/20 04:00:45;;;;;;;100.13;34.30;;;;;;;-18.65;79.12;99890.34;3545582;27;20559;-43
2021/01/20 04:02:27;;;;;;;109.13;35.67;;;;;;;-18.62;79.40;99891.66;3551226;27;20062;-43
2021/01/20 04:04:09;;;;;;;107.38;33.13;;;;;;;-18.58;79.50;99890.47;3548714;27;20054;-43
2021/01/20 04:05:51;;;;;;;115.27;33.90;;;;;;;-18.56;79.55;99885.03;3548879;27;20430;-43
2021/01/20 04:07:32;;;;;;;110.03;32.47;;;;;;;-18.52;79.83;99882.25;3548244;27;20426;-43
2021/01/20 04:09:14;;;;;;;101.40;30.23;;;;;;;-18.48;79.99;99878.56;3547421;27;20066;-43
2021/01/20 04:10:55;;;;;;;104.73;32.40;;;;;;;-18.44;80.05;99878.31;3550240;27;20039;-43
2021/01/20 04:12:38;;;;;;;105.83;32.97;;;;;;;-18.40;80.13;99878.00;3552971;27;20047;-43
2021/01/20 04:14:19;;;;;;;101.80;33.93;;;;;;;-18.39;80.02;99869.88;3551234;27;20043;-43
2021/01/20 04:16:02;;;;;;;101.33;33.67;;;;;;;-18.36;79.97;99867.78;3553835;27;20042;-43
2021/01/20 04:17:44;;;;;;;110.17;38.13;;;;;;;-18.34;80.04;99868.91;3551178;27;20092;-43
2021/01/20 04:19:25;;;;;;;124.27;39.27;;;;;;;-18.32;80.23;99872.44;3551146;27;20050;-43
2021/01/20 04:21:07;;;;;;;133.73;41.03;;;;;;;-18.29;80.22;99874.41;3553313;27;20047;-43
2021/01/20 04:22:49;;;;;;;129.87;36.77;;;;;;;-18.29;80.15;99870.34;3551464;27;20046;-43
2021/01/20 04:24:30;;;;;;;111.47;33.87;;;;;;;-18.27;80.16;99872.13;3551126;27;20450;-43
2021/01/20 04:26:12;;;;;;;104.33;31.70;;;;;;;-18.25;80.63;99876.56;3552639;27;20099;-43
2021/01/20 04:27:54;;;;;;;108.97;29.77;;;;;;;-18.21;80.80;99871.34;3550910;27;20511;-43
2021/01/20 04:29:35;;;;;;;101.00;31.33;;;;;;;-18.21;80.96;99866.38;3552897;27;20414;-53
2021/01/20 04:31:16;;;;;;;92.73;29.50;;;;;;;-18.18;81.01;99871.75;3551469;27;20045;-48
2021/01/20 04:32:59;;;;;;;91.67;29.77;;;;;;;-18.15;81.08;99873.69;3551215;27;20046;-52
2021/01/20 04:34:41;;;;;;;82.93;28.63;;;;;;;-18.12;81.09;99879.06;3553036;27;20047;-49
2021/01/20 04:36:23;;;;;;;102.67;29.53;;;;;;;-18.09;81.23;99881.94;3551719;27;20038;-43
2021/01/20 04:38:05;;;;;;;65.73;20.30;;;;;;;-18.06;81.44;99872.38;3552020;27;20495;-43
2021/01/20 04:39:47;;;;;;;81.27;24.90;;;;;;;-18.04;81.21;99861.09;3552434;27;20066;-43
2021/01/20 04:41:28;;;;;;;79.50;26.17;;;;;;;-18.01;80.92;99866.44;3550843;27;20103;-43
2021/01/20 04:43:10;;;;;;;91.23;25.90;;;;;;;-17.99;81.15;99869.09;3552439;27;20050;-43
2021/01/20 04:44:52;;;;;;;84.60;25.80;;;;;;;-17.98;81.06;99871.78;3551010;27;20042;-43
2021/01/20 04:46:36;;;;;;;111.00;29.03;;;;;;;-17.96;80.88;99872.88;3550609;27;20047;-44
2021/01/20 04:48:19;;;;;;;96.87;30.77;;;;;;;-17.96;80.95;99870.38;3553210;27;20046;-43
2021/01/20 04:50:03;;;;;;;74.95;29.58;;;;;;;-17.94;81.07;99878.00;3550908;27;20097;-43
2021/01/20 04:51:47;;;;;;;107.13;31.43;;;;;;;-17.95;80.85;99882.09;3550657;27;20042;-44
2021/01/20 04:53:31;;;;;;;106.20;33.73;;;;;;;-17.97;80.72;99880.09;3553018;27;20050;-43
2021/01/20 04:55:14;;;;;;;106.38;30.98;;;;;;;-17.99;80.92;99883.97;3548140;27;20043;-43
2021/01/20 04:56:56;;;;;;;103.40;32.17;;;;;;;-17.99;81.02;99889.81;3550899;27;20046;-43
2021/01/20 04:58:38;;;;;;;109.80;32.93;;;;;;;-17.98;81.03;99890.72;3552954;27;20046;-43
2021/01/20 05:00:21;;;;;;;103.30;30.90;;;;;;;-17.99;81.02;99887.31;3550962;27;20046;-43
2021/01/20 05:02:03;;;;;;;96.53;31.45;;;;;;;-17.98;81.20;99884.16;3552552;27;20046;-43
2021/01/20 05:03:46;;;;;;;97.83;30.07;;;;;;;-17.95;81.33;99884.56;3551716;27;20061;-43
2021/01/20 05:05:28;;;;;;;89.22;30.25;;;;;;;-17.94;81.28;99881.38;3551739;27;20042;-43
2021/01/20 05:07:10;;;;;;;90.70;30.27;;;;;;;-17.91;81.25;99886.72;3552789;27;20534;-44
2021/01/20 05:08:51;;;;;;;113.40;35.53;;;;;;;-17.90;81.19;99890.06;3546403;27;20079;-43
2021/01/20 05:10:33;;;;;;;101.33;33.13;;;;;;;-17.88;81.19;99887.81;3548041;27;20487;-43
2021/01/20 05:12:33;;;;;;;98.83;31.33;;;;;;;-17.87;81.23;99895.44;3552862;27;20047;-43
2021/01/20 05:14:16;;;;;;;100.37;33.57;;;;;;;-17.88;81.10;99885.31;3549052;27;20522;-43
2021/01/20 05:15:58;;;;;;;103.27;33.97;;;;;;;-17.88;80.89;99885.31;3550509;27;20054;-43
2021/01/20 05:17:56;;;;;;;101.10;35.30;;;;;;;-17.87;80.88;99899.50;3552709;27;20282;-43
2021/01/20 05:19:39;;;;;;;87.97;30.07;;;;;;;-17.86;80.89;99893.84;3548806;27;20419;-49
2021/01/20 05:21:21;;;;;;;75.20;24.63;;;;;;;-17.85;80.82;99894.03;3549639;27;20464;-51
2021/01/20 05:23:04;;;;;;;108.63;31.90;;;;;;;-17.85;80.91;99898.09;3551897;27;20046;-49
2021/01/20 05:24:57;;;;;;;98.53;32.08;;;;;;;-17.83;80.79;99902.53;3550404;27;20050;-53
2021/01/20 05:26:46;;;;;;;97.27;31.53;;;;;;;-17.82;80.86;99904.34;3549117;27;20043;-49
2021/01/20 05:28:28;;;;;;;96.33;28.00;;;;;;;-17.81;80.78;99907.69;3552175;27;20078;-50
2021/01/20 05:30:11;;;;;;;96.23;30.37;;;;;;;-17.81;80.59;99905.22;3551199;27;20046;-51
2021/01/20 05:31:53;;;;;;;98.40;29.33;;;;;;;-17.81;80.70;99910.16;3548825;27;20117;-49
2021/01/20 05:33:37;;;;;;;117.00;32.67;;;;;;;-17.80;80.77;99915.28;3551936;27;20215;-49
2021/01/20 05:35:20;;;;;;;105.60;33.63;;;;;;;-17.80;80.72;99926.78;3550233;27;20503;-49
2021/01/20 05:37:04;;;;;;;105.40;32.03;;;;;;;-17.82;80.75;99918.31;3552677;27;20051;-48
2021/01/20 05:38:46;;;;;;;;;;;;;;;-17.84;80.66;99925.53;3549969;27;20046;-50
2021/01/20 05:40:34;;;;;;;90.70;27.17;;;;;;;-17.87;80.74;99922.66;3550448;27;19958;-53
2021/01/20 05:42:16;;;;;;;108.17;30.03;;;;;;;-17.87;80.79;99931.69;3550357;27;20047;-50
2021/01/20 05:44:12;;;;;;;101.70;32.90;;;;;;;-17.88;80.72;99929.91;3551019;27;20057;-48
2021/01/20 05:45:54;;;;;;;115.33;33.73;;;;;;;-17.88;80.85;99928.31;3550193;27;20051;-49
2021/01/20 05:47:35;;;;;;;94.37;28.93;;;;;;;-17.90;80.74;99932.19;3553543;27;20074;-49
2021/01/20 05:49:23;;;;;;;109.70;35.00;;;;;;;-17.92;80.88;99936.94;3551077;27;20050;-51
2021/01/20 05:51:05;;;;;;;97.60;32.30;;;;;;;-17.94;80.79;99935.84;3551130;27;20058;-51
2021/01/20 05:53:02;;;;;;;108.03;34.87;;;;;;;-17.95;80.89;99931.63;3552420;27;20460;-51
2021/01/20 05:54:44;;;;;;;119.33;35.87;;;;;;;-17.95;81.33;99926.66;3550873;27;20503;-49
2021/01/20 05:56:27;;;;;;;145.97;40.90;;;;;;;-17.93;81.29;99930.22;3550852;27;20039;-51
2021/01/20 05:58:09;;;;;;;114.60;36.73;;;;;;;-17.91;81.13;99927.94;3553223;27;20055;-52
2021/01/20 05:59:50;;;;;;;128.23;39.10;;;;;;;-17.88;81.54;99927.41;3550747;27;20444;-51
2021/01/20 06:01:32;;;;;;;108.90;34.50;;;;;;;-17.84;81.76;99927.09;3552317;27;20503;-49
2021/01/20 06:03:14;;;;;;;119.20;33.83;;;;;;;-17.80;81.87;99925.19;3551798;27;20082;-49
2021/01/20 06:04:57;;;;;;;97.07;32.80;;;;;;;-17.76;81.92;99924.00;3551132;27;20047;-42
2021/01/20 06:06:39;;;;;;;109.23;33.70;;;;;;;-17.69;81.93;99923.19;3553284;27;20076;-43
2021/01/20 06:08:21;;;;;;;94.88;31.85;;;;;;;-17.65;81.83;99923.78;3550988;27;20482;-48
2021/01/20 06:10:04;;;;;;;79.43;28.70;;;;;;;-17.61;81.42;99921.00;3541495;27;20103;-52
2021/01/20 06:11:45;;;;;;;101.00;30.93;;;;;;;-17.57;81.41;99919.78;3553012;27;20047;-48
2021/01/20 06:13:28;;;;;;;111.33;37.47;;;;;;;-17.55;81.19;99926.69;3550566;27;20460;-50
2021/01/20 06:15:10;;;;;;;86.83;30.30;;;;;;;-17.53;80.94;99922.84;3551260;27;20558;-48
2021/01/20 06:17:02;;;;;;;74.47;27.37;;;;;;;-17.49;80.80;99925.69;3552110;27;20042;-49
2021/01/20 06:18:48;;;;;;;125.87;38.47;;;;;;;-17.52;80.84;99914.69;3550896;27;20050;-52
2021/01/20 06:20:30;;;;;;;112.30;33.13;;;;;;;-17.42;80.65;99924.19;3551600;27;20049;-49
2021/01/20 06:22:15;;;;;;;109.63;33.97;;;;;;;-17.38;80.71;99921.41;3552355;27;20051;-49
2021/01/20 06:24:03;;;;;;;104.60;34.57;;;;;;;-17.32;80.59;99923.75;3550542;27;20046;-52
2021/01/20 06:25:45;;;;;;;122.63;35.47;;;;;;;-17.27;80.53;99921.84;3552383;27;20385;-48
2021/01/20 06:27:33;;;;;;;90.80;31.63;;;;;;;-17.22;80.49;99925.81;3551169;27;20066;-47
2021/01/20 06:29:16;;;;;;;104.37;35.23;;;;;;;-17.17;80.43;99929.75;3543831;27;20446;-48
2021/01/20 06:31:04;;;;;;;106.60;32.20;;;;;;;-17.14;80.49;99922.66;3553246;27;20061;-48
2021/01/20 06:32:48;;;;;;;99.60;31.80;;;;;;;-17.07;80.41;99929.28;3549829;27;20070;-48
2021/01/20 06:34:30;;;;;;;105.80;34.10;;;;;;;-17.03;80.39;99933.91;3549667;27;20525;-51
2021/01/20 06:36:29;;;;;;;101.57;32.87;;;;;;;-16.98;80.38;99936.28;3552055;27;20447;-49
2021/01/20 06:38:34;;;;;;;105.73;35.17;;;;;;;-16.93;80.17;99939.31;3549981;27;20430;-50
2021/01/20 06:40:37;;;;;;;;;;;;;;;-16.90;80.15;99942.19;3551069;27;20043;-50
2021/01/20 06:42:32;;;;;;;104.30;29.87;;;;;;;-16.86;80.42;99934.41;3550458;27;19969;-48
2021/01/20 06:44:15;;;;;;;;;;;;;;;-16.82;80.21;99940.63;3553145;27;20459;-48
2021/01/20 06:46:11;;;;;;;98.00;31.43;;;;;;;-16.80;80.04;99941.72;3550238;27;19926;-51
2021/01/20 06:48:06;;;;;;;96.83;29.10;;;;;;;-16.74;80.18;99944.06;3550166;27;20517;-51
2021/01/20 06:50:00;;;;;;;109.07;32.87;;;;;;;-16.75;79.60;99938.19;3552515;27;20054;-48
2021/01/20 06:52:02;;;;;;;95.83;31.57;;;;;;;-16.71;79.69;99940.38;3550772;27;20053;-47
2021/01/20 06:54:05;;;;;;;106.83;34.67;;;;;;;-16.69;79.35;99948.88;3550294;27;20526;-49
2021/01/20 06:55:47;;;;;;;99.13;31.23;;;;;;;-16.66;79.15;99954.25;3550169;27;20499;-48
2021/01/20 06:57:30;;;;;;;98.87;33.07;;;;;;;-16.61;78.95;99954.78;3547506;27;20039;-51
2021/01/20 06:59:30;;;;;;;102.25;32.88;;;;;;;-16.59;78.79;99950.88;3544454;27;20051;-47
2021/01/20 07:01:13;;;;;;;118.40;35.30;;;;;;;-16.55;78.69;99953.06;3544396;27;20058;-52
2021/01/20 07:03:01;;;;;;;115.57;33.43;;;;;;;-16.48;78.60;99963.03;3549501;27;20081;-43
2021/01/20 07:05:05;;;;;;;102.23;32.53;;;;;;;-16.45;78.16;99958.47;3547885;27;20137;-43
2021/01/20 07:06:47;;;;;;;124.20;34.90;;;;;;;-16.40;78.49;99961.50;3549944;27;20047;-43
2021/01/20 07:08:52;;;;;;;124.97;37.20;;;;;;;-16.37;78.10;99967.72;3550191;27;20042;-42
2021/01/20 07:11:09;;;;;;;141.57;38.57;;;;;;;-16.32;78.41;99965.81;3549472;27;20099;-43
2021/01/20 07:13:13;;;;;;;119.23;37.10;;;;;;;-16.23;77.79;99964.44;3550463;27;20092;-42
2021/01/20 07:14:56;;;;;;;113.50;36.88;;;;;;;-16.14;77.95;99962.19;3549720;27;20107;-42
2021/01/20 07:16:38;;;;;;;136.77;40.20;;;;;;;-16.10;77.26;99966.81;3548304;27;20042;-48
2021/01/20 07:18:25;;;;;;;114.97;38.27;;;;;;;-16.06;78.12;99966.50;3548870;27;20051;-47
2021/01/20 07:20:08;;;;;;;113.50;37.93;;;;;;;-15.95;77.88;99972.78;3547850;27;20055;-47
2021/01/20 07:21:50;;;;;;;121.03;35.67;;;;;;;-15.91;78.04;99967.47;3551302;27;20138;-47
2021/01/20 07:23:32;;;;;;;122.00;34.90;;;;;;;-15.83;77.64;99958.47;3549371;27;20039;-47
2021/01/20 07:25:14;;;;;;;110.87;33.63;;;;;;;-15.84;76.94;99959.16;3550474;27;20050;-43
2021/01/20 07:27:02;;;;;;;123.77;38.37;;;;;;;-15.92;76.93;99959.81;3548845;27;20115;-43
2021/01/20 07:28:44;;;;;;;94.83;32.77;;;;;;;-15.85;77.41;99953.31;3548343;27;20193;-43
2021/01/20 07:30:26;;;;;;;107.80;32.10;;;;;;;-15.70;77.81;99961.66;3550518;27;20054;-43
2021/01/20 07:32:08;;;;;;;95.40;30.73;;;;;;;-15.65;77.06;99958.13;3548191;27;20047;-43
2021/01/20 07:33:51;;;;;;;116.17;34.03;;;;;;;-15.45;78.16;99972.94;3548554;27;20055;-42
2021/01/20 07:35:33;;;;;;;94.82;33.22;;;;;;;-15.33;76.24;99967.66;3548113;27;20043;-43
2021/01/20 07:37:17;;;;;;;113.60;34.33;;;;;;;-15.17;77.03;99966.25;3548699;27;20043;-49
2021/01/20 07:38:59;;;;;;;103.10;31.50;;;;;;;-15.11;75.89;99964.50;3550513;27;20043;-43
2021/01/20 07:40:42;;;;;;;97.10;30.73;;;;;;;-15.01;76.11;99960.59;3551506;27;20054;-50
2021/01/20 07:42:37;;;;;;;97.43;30.05;;;;;;;-14.88;75.82;99959.75;3550088;27;20419;-50
2021/01/20 07:44:19;;;;;;;102.20;30.07;;;;;;;-14.72;76.69;99963.94;3549834;27;20395;-43
2021/01/20 07:46:01;;;;;;;87.63;30.50;;;;;;;-14.63;75.64;99964.13;3551007;27;20572;-50
2021/01/20 07:47:47;;;;;;;106.40;37.57;;;;;;;-14.69;75.01;99975.16;3551791;27;20456;-47
2021/01/20 07:49:29;;;;;;;109.63;36.23;;;;;;;-14.66;75.12;99977.13;3551417;27;20047;-48
2021/01/20 07:51:20;;;;;;;112.47;36.03;;;;;;;-14.72;75.28;99984.78;3551405;27;20071;-47